This is the latest recevied weather packets stored in our database for station/object N2ZVN. If no packets are shown the sender has not sent any weather packets the latest 1 day(s).
| Time | Temp. | Humidity | Pressure | Rain* | Wind** | Luminosity | Snow |
|---|---|---|---|---|---|---|---|
| 1778003995 | 20.56° C | 53% | 1004.7 hPa | 0 mm | 1.34 m/s, 238° | 419 W/m² | - |
| 1778003691 | 20.56° C | 53% | 1004.6 hPa | 0 mm | 1.79 m/s, 276° | 515 W/m² | - |
| 1778003388 | 21.11° C | 52% | 1004.6 hPa | 0 mm | 1.79 m/s, 276° | 273 W/m² | - |
| 1778003085 | 21.11° C | 53% | 1004.8 hPa | 0 mm | 1.79 m/s, 265° | 400 W/m² | - |
| 1778002781 | 21.11° C | 52% | 1004.9 hPa | 0 mm | 1.34 m/s, 278° | 239 W/m² | - |
| 1778002478 | 21.11° C | 52% | 1004.7 hPa | 0 mm | 0.89 m/s, 254° | 397 W/m² | - |
| 1778002175 | 20.56° C | 53% | 1004.6 hPa | 0 mm | 2.68 m/s, 266° | 636 W/m² | - |
| 1778001873 | 20.56° C | 52% | 1004.6 hPa | 0 mm | 4.02 m/s, 179° | 226 W/m² | - |
| 1778001572 | 20.56° C | 53% | 1004.8 hPa | 0 mm | 1.79 m/s, 275° | 316 W/m² | - |
| 1778001269 | 21.11° C | 50% | 1004.6 hPa | 0 mm | 5.36 m/s, 241° | 323 W/m² | - |
| 1778000966 | 21.11° C | 51% | 1004.8 hPa | 0 mm | 3.13 m/s, 244° | 698 W/m² | - |
| 1778000663 | 21.11° C | 52% | 1004.9 hPa | 0 mm | 1.79 m/s, 232° | 395 W/m² | - |
| 1778000358 | 21.11° C | 52% | 1004.6 hPa | 0 mm | 3.13 m/s, 259° | 476 W/m² | - |
| 1778000055 | 21.67° C | 51% | 1004.4 hPa | 0 mm | 2.68 m/s, 277° | 805 W/m² | - |
| 1777999749 | 21.11° C | 52% | 1004.1 hPa | 0 mm | 1.34 m/s, 269° | 707 W/m² | - |
| 1777999447 | 21.11° C | 51% | 1003.9 hPa | 0 mm | 2.68 m/s, 187° | 734 W/m² | - |
| 1777999145 | 21.11° C | 51% | 1004.2 hPa | 0 mm | 4.47 m/s, 255° | 733 W/m² | - |
| 1777998844 | 20.56° C | 55% | 1004.3 hPa | 0 mm | 0.45 m/s, 218° | 676 W/m² | - |
| 1777998542 | 20.56° C | 52% | 1004.2 hPa | 0 mm | 3.13 m/s, 250° | 698 W/m² | - |
| 1777998237 | 20° C | 54% | 1004.4 hPa | 0 mm | 1.34 m/s, 219° | 725 W/m² | - |
| 1777997935 | 20° C | 53% | 1004.5 hPa | 0 mm | 3.13 m/s, 234° | 302 W/m² | - |
| 1777997631 | 20° C | 54% | 1004.6 hPa | 0 mm | 2.24 m/s, 258° | 95 W/m² | - |
| 1777997329 | 20° C | 52% | 1004.7 hPa | 0 mm | 3.58 m/s, 240° | 67 W/m² | - |
| 1777997027 | 20° C | 53% | 1004.6 hPa | 0 mm | 2.24 m/s, 288° | 149 W/m² | - |
| 1777996723 | 20° C | 55% | 1004.8 hPa | 0 mm | 1.79 m/s, 249° | 145 W/m² | - |
* Rain latest hour (hover to see other rain measurements)
** Current wind speed in m/s (hover to see current wind gust speed)